Time;durP1;ratioP1;P1;durP2;ratioP2;P2;SDS_P1;SDS_P2;PMS_P1;PMS_P2;Temp;Humidity;BMP_temperature;BMP_pressure;BME280_temperature;BME280_humidity;BME280_pressure;Samples;Min_cycle;Max_cycle;Signal;HPM_P1;HPM_P2
2022/03/18 00:00:25;;;;;;;5.87;5.37;;;;;;;3.35;nan;96605.72;5146293;27;20211;-66
2022/03/18 00:02:54;;;;;;;6.03;5.17;;;;;;;3.06;nan;96606.81;5143506;27;20341;-66
2022/03/18 00:05:22;;;;;;;6.97;6.23;;;;;;;3.04;nan;96608.47;5145498;27;20191;-67
2022/03/18 00:07:49;;;;;;;7.03;6.47;;;;;;;2.85;nan;96606.41;5141585;27;20273;-67
2022/03/18 00:10:17;;;;;;;6.73;6.13;;;;;;;2.89;nan;96616.53;5143576;27;20191;-68
2022/03/18 00:12:46;;;;;;;6.10;5.60;;;;;;;2.87;nan;96619.84;5144493;27;20203;-68
2022/03/18 00:15:14;;;;;;;7.07;6.47;;;;;;;2.58;nan;96616.69;5143174;27;20218;-67
2022/03/18 00:17:41;;;;;;;6.50;5.90;;;;;;;2.55;nan;96619.13;5143344;27;20235;-68
2022/03/18 00:20:11;;;;;;;6.70;6.10;;;;;;;2.51;nan;96624.88;5145403;27;20714;-68
2022/03/18 00:22:38;;;;;;;6.93;6.37;;;;;;;2.41;nan;96621.34;5145382;27;20795;-68
2022/03/18 00:25:06;;;;;;;6.87;6.10;;;;;;;2.30;nan;96622.75;5145763;27;20258;-69
2022/03/18 00:27:35;;;;;;;7.70;6.60;;;;;;;2.28;nan;96627.72;5143009;27;20716;-68
2022/03/18 00:30:04;;;;;;;9.90;7.37;;;;;;;2.48;nan;96635.69;5145615;27;20251;-67
2022/03/18 00:32:32;;;;;;;7.97;7.07;;;;;;;2.70;nan;96630.38;5144298;27;20275;-67
2022/03/18 00:34:59;;;;;;;7.93;7.13;;;;;;;2.62;nan;96641.03;5144914;27;20247;-67
2022/03/18 00:37:26;;;;;;;8.20;7.10;;;;;;;2.59;nan;96641.81;5144193;27;20285;-67
2022/03/18 00:39:53;;;;;;;8.80;7.97;;;;;;;2.46;nan;96639.88;5143904;27;20680;-67
2022/03/18 00:42:20;;;;;;;8.87;7.53;;;;;;;2.57;nan;96640.09;5145258;27;20213;-66
2022/03/18 00:44:47;;;;;;;8.77;7.77;;;;;;;2.67;nan;96627.78;5144870;27;20198;-66
2022/03/18 00:52:43;;;;;;;7.60;6.93;;;;;;;2.90;nan;96639.97;5142519;27;20266;-68
2022/03/18 00:55:10;;;;;;;8.03;7.33;;;;;;;2.92;nan;96645.88;5141065;27;20204;-66
2022/03/18 00:57:37;;;;;;;7.90;7.10;;;;;;;2.96;nan;96650.16;5145535;27;20231;-66
2022/03/18 01:00:07;;;;;;;13.07;6.90;;;;;;;2.93;nan;96645.06;5125732;27;21545;-66
2022/03/18 01:02:35;;;;;;;7.90;7.10;;;;;;;2.85;nan;96654.94;5142917;27;20687;-68
2022/03/18 01:05:02;;;;;;;8.73;7.87;;;;;;;2.63;nan;96653.63;5141482;27;20225;-66
2022/03/18 01:07:30;;;;;;;9.20;8.27;;;;;;;2.82;nan;96651.53;5144191;27;20246;-67
2022/03/18 01:09:57;;;;;;;8.40;7.43;;;;;;;3.02;nan;96655.28;5142679;27;20191;-66
2022/03/18 01:12:24;;;;;;;8.73;7.30;;;;;;;2.84;nan;96658.28;5141037;27;20203;-67
2022/03/18 01:14:51;;;;;;;8.70;7.57;;;;;;;2.92;nan;96650.91;5139926;27;20199;-67
2022/03/18 01:17:18;;;;;;;9.63;8.23;;;;;;;2.99;nan;96655.22;5141924;27;20631;-67
2022/03/18 01:19:46;;;;;;;10.73;8.33;;;;;;;2.83;nan;96660.75;5140673;27;20230;-69
2022/03/18 01:22:13;;;;;;;11.10;9.00;;;;;;;3.10;nan;96663.00;5142504;27;20196;-67
2022/03/18 01:24:40;;;;;;;8.97;8.07;;;;;;;2.92;nan;96653.44;5144857;27;20218;-67
2022/03/18 01:27:07;;;;;;;10.87;8.50;;;;;;;2.95;nan;96658.50;5143102;27;20263;-67
2022/03/18 01:29:35;;;;;;;11.93;8.63;;;;;;;2.71;nan;96657.16;5144386;27;20362;-66
2022/03/18 01:32:02;;;;;;;9.90;8.03;;;;;;;2.74;nan;96653.84;5144298;27;20596;-68
2022/03/18 01:34:29;;;;;;;11.07;8.53;;;;;;;2.73;nan;96653.00;5141883;27;20199;-68
2022/03/18 01:36:57;;;;;;;13.67;8.37;;;;;;;2.76;nan;96648.88;5140853;27;20262;-68
2022/03/18 01:39:24;;;;;;;11.07;8.50;;;;;;;2.41;nan;96653.09;5142733;27;20289;-67
2022/03/18 01:41:51;;;;;;;12.73;8.93;;;;;;;2.42;nan;96645.63;5141440;27;20193;-69
2022/03/18 01:44:19;;;;;;;10.07;9.07;;;;;;;2.28;nan;96652.81;5142305;27;20295;-67
2022/03/18 01:46:46;;;;;;;11.13;8.50;;;;;;;2.58;nan;96659.34;5138780;27;20205;-67
2022/03/18 01:49:13;;;;;;;10.77;8.70;;;;;;;2.61;nan;96657.75;5142244;27;20380;-67
2022/03/18 01:51:41;;;;;;;13.10;8.03;;;;;;;2.35;nan;96658.81;5140621;27;20863;-68
2022/03/18 01:57:03;;;;;;;8.37;7.37;;;;;;;2.41;nan;96664.00;5092618;27;20328;-68
2022/03/18 01:59:29;;;;;;;11.53;8.03;;;;;;;2.59;nan;96666.06;5143334;27;20212;-68
2022/03/18 02:01:56;;;;;;;8.43;7.67;;;;;;;2.72;nan;96671.38;5143971;27;20247;-68
2022/03/18 02:04:24;;;;;;;10.07;7.23;;;;;;;2.92;nan;96665.97;5140904;27;20245;-67
2022/03/18 02:06:52;;;;;;;11.03;7.90;;;;;;;2.84;nan;96680.03;5142934;27;21040;-68
2022/03/18 02:09:21;;;;;;;10.80;7.23;;;;;;;2.96;nan;96665.25;5143230;27;20716;-69
2022/03/18 02:11:48;;;;;;;9.57;7.57;;;;;;;2.93;nan;96670.19;5140660;27;20282;-67
2022/03/18 02:14:15;;;;;;;9.03;7.40;;;;;;;2.44;nan;96661.56;5140625;27;20200;-66
2022/03/18 02:16:41;;;;;;;8.23;6.37;;;;;;;2.49;nan;96661.63;5141901;27;20191;-67
2022/03/18 02:19:08;;;;;;;8.57;6.87;;;;;;;2.40;nan;96662.31;5143555;27;20202;-66
2022/03/18 02:21:38;;;;;;;10.13;6.97;;;;;;;2.14;nan;96663.34;5145004;27;20227;-67
2022/03/18 02:24:07;;;;;;;10.07;7.20;;;;;;;1.80;nan;96672.50;5141995;27;20191;-67
2022/03/18 02:26:35;;;;;;;7.50;6.80;;;;;;;1.75;nan;96674.03;5144261;27;20220;-68
2022/03/18 02:29:03;;;;;;;7.10;6.20;;;;;;;1.86;nan;96674.31;5138839;27;20235;-67
2022/03/18 02:31:31;;;;;;;6.97;6.30;;;;;;;1.87;nan;96669.34;5118018;27;20257;-67
2022/03/18 02:33:58;;;;;;;9.03;7.03;;;;;;;2.01;nan;96675.56;5059653;27;20195;-67
2022/03/18 02:36:24;;;;;;;7.83;7.10;;;;;;;2.37;nan;96685.66;5056260;27;20289;-67
2022/03/18 02:38:51;;;;;;;13.13;7.00;;;;;;;2.41;nan;96688.25;5064630;27;20191;-67
2022/03/18 02:41:19;;;;;;;9.03;6.90;;;;;;;2.15;nan;96685.09;5070070;27;20278;-68
2022/03/18 02:43:47;;;;;;;7.53;6.90;;;;;;;2.23;nan;96686.97;5059708;27;20191;-67
2022/03/18 02:46:14;;;;;;;8.90;7.10;;;;;;;2.02;nan;96679.75;5061953;27;20195;-67
2022/03/18 02:48:41;;;;;;;10.57;7.17;;;;;;;2.02;nan;96689.78;5052999;27;20234;-68
2022/03/18 02:51:08;;;;;;;9.63;7.47;;;;;;;2.10;nan;96691.66;5059829;27;20275;-67
2022/03/18 02:53:35;;;;;;;8.37;7.00;;;;;;;2.18;nan;96692.69;5053511;27;20202;-67
2022/03/18 02:56:04;;;;;;;13.33;7.20;;;;;;;1.88;nan;96705.31;5063259;27;20202;-66
2022/03/18 02:58:33;;;;;;;8.63;7.63;;;;;;;1.69;nan;96693.94;5061770;27;20222;-67
2022/03/18 03:01:00;;;;;;;10.17;6.97;;;;;;;1.62;nan;96707.13;5051395;27;20230;-66
2022/03/18 03:03:26;;;;;;;8.40;7.57;;;;;;;1.80;nan;96717.63;5058528;27;20566;-66
2022/03/18 03:08:37;;;;;;;10.47;7.57;;;;;;;1.87;nan;96703.59;5059601;27;20499;-66
2022/03/18 03:11:04;;;;;;;9.87;7.80;;;;;;;1.75;nan;96714.13;5057044;27;20612;-67
2022/03/18 03:13:33;;;;;;;10.00;7.10;;;;;;;1.67;nan;96720.63;5053029;27;20658;-67
2022/03/18 03:16:00;;;;;;;11.50;7.17;;;;;;;1.61;nan;96710.44;5057938;27;20574;-67
2022/03/18 03:18:28;;;;;;;8.83;6.40;;;;;;;1.45;nan;96720.84;5069755;27;20210;-67
2022/03/18 03:20:55;;;;;;;6.00;5.50;;;;;;;1.73;nan;96722.44;5049247;27;20282;-66
2022/03/18 03:23:23;;;;;;;7.83;5.67;;;;;;;1.57;nan;96728.69;5068424;27;20649;-67
2022/03/18 03:25:51;;;;;;;7.27;6.57;;;;;;;1.76;nan;96725.88;5056066;27;20208;-67
2022/03/18 03:28:18;;;;;;;7.03;6.43;;;;;;;1.61;nan;96732.97;5051323;27;20514;-67
2022/03/18 03:30:46;;;;;;;6.70;6.10;;;;;;;1.60;nan;96728.78;5048639;27;20673;-67
2022/03/18 03:33:14;;;;;;;8.63;6.27;;;;;;;1.55;nan;96740.31;5058227;27;20289;-67
2022/03/18 03:35:42;;;;;;;9.00;6.70;;;;;;;1.58;nan;96740.41;5063253;27;20234;-67
2022/03/18 03:38:09;;;;;;;7.33;6.60;;;;;;;1.48;nan;96734.31;5052234;27;20206;-67
2022/03/18 03:40:37;;;;;;;7.77;7.13;;;;;;;1.52;nan;96737.72;5062928;27;20207;-67
2022/03/18 03:43:05;;;;;;;8.10;7.23;;;;;;;1.46;nan;96745.94;5058057;27;20207;-66
2022/03/18 03:45:31;;;;;;;14.10;8.30;;;;;;;1.63;nan;96748.91;5060568;27;20248;-66
2022/03/18 03:47:59;;;;;;;8.87;7.97;;;;;;;1.57;nan;96748.72;5054349;27;20351;-66
2022/03/18 03:50:27;;;;;;;9.50;8.00;;;;;;;1.54;nan;96757.00;5054930;27;20199;-67
2022/03/18 03:52:54;;;;;;;9.00;8.20;;;;;;;1.38;nan;96752.38;5072002;27;20594;-67
2022/03/18 03:55:21;;;;;;;14.27;8.17;;;;;;;1.48;nan;96769.38;5061734;27;20222;-68
2022/03/18 03:57:47;;;;;;;13.87;9.03;;;;;;;1.53;nan;96759.47;5062175;27;20206;-69
2022/03/18 04:00:15;;;;;;;10.77;8.77;;;;;;;1.51;nan;96768.59;5066805;27;20756;-67
2022/03/18 04:02:43;;;;;;;9.87;8.80;;;;;;;1.77;nan;96757.63;5061529;27;20198;-67
2022/03/18 04:05:11;;;;;;;10.80;9.43;;;;;;;1.93;nan;96759.78;5063554;27;20768;-67
2022/03/18 04:07:40;;;;;;;14.57;10.27;;;;;;;2.11;nan;96773.59;5057083;27;20191;-68
2022/03/18 04:10:08;;;;;;;13.23;10.13;;;;;;;1.73;nan;96765.91;5068402;27;20269;-67
2022/03/18 04:12:35;;;;;;;10.67;9.70;;;;;;;1.61;nan;96773.06;5056896;27;20234;-67
2022/03/18 04:15:02;;;;;;;12.03;10.50;;;;;;;1.72;nan;96774.22;5065100;27;20287;-69
2022/03/18 04:17:37;;;;;;;16.53;10.60;;;;;;;1.61;nan;96760.53;5053106;27;20234;-70
2022/03/18 04:20:05;;;;;;;11.37;10.10;;;;;;;1.94;nan;96776.53;5056262;27;20212;-68
2022/03/18 04:22:34;;;;;;;11.67;10.10;;;;;;;1.78;nan;96779.41;5064655;27;20725;-69
2022/03/18 04:25:00;;;;;;;13.63;9.77;;;;;;;1.49;nan;96782.72;5059968;27;20195;-68
2022/03/18 04:27:27;;;;;;;10.93;9.57;;;;;;;1.46;nan;96788.53;5063966;27;20248;-69
2022/03/18 04:29:54;;;;;;;11.83;8.37;;;;;;;1.41;nan;96789.19;5062801;27;20282;-67
2022/03/18 04:32:21;;;;;;;12.07;10.30;;;;;;;1.45;nan;96791.84;5068374;27;20696;-68
2022/03/18 04:34:48;;;;;;;14.37;8.83;;;;;;;1.18;nan;96789.38;5064764;27;20203;-67
2022/03/18 04:37:15;;;;;;;9.03;8.03;;;;;;;1.16;nan;96788.47;5060383;27;20198;-67
2022/03/18 04:39:43;;;;;;;9.00;8.00;;;;;;;1.17;nan;96797.69;5067266;27;20198;-68
2022/03/18 04:42:10;;;;;;;17.27;8.57;;;;;;;1.17;nan;96794.31;5062949;27;20323;-67
2022/03/18 04:44:37;;;;;;;13.83;7.87;;;;;;;1.22;nan;96786.16;5065978;27;20286;-67
2022/03/18 04:47:04;;;;;;;11.30;8.00;;;;;;;1.31;nan;96791.41;5061196;27;20199;-67
2022/03/18 04:49:31;;;;;;;8.13;7.33;;;;;;;1.52;nan;96790.34;5056282;27;20328;-67
2022/03/18 04:51:58;;;;;;;7.80;7.10;;;;;;;1.41;nan;96792.56;5067205;27;20270;-69
2022/03/18 04:54:24;;;;;;;9.97;7.13;;;;;;;1.53;nan;96807.06;5057517;27;20756;-67
2022/03/18 04:59:36;;;;;;;8.50;7.67;;;;;;;1.43;nan;96800.13;5059915;27;20233;-67
2022/03/18 05:02:04;;;;;;;9.03;7.93;;;;;;;1.34;nan;96806.53;5053513;27;20203;-67
2022/03/18 05:04:30;;;;;;;9.63;8.17;;;;;;;1.51;nan;96808.69;5050119;27;20199;-67
2022/03/18 05:06:57;;;;;;;9.13;8.00;;;;;;;1.49;nan;96810.28;5073865;27;20198;-68
2022/03/18 05:09:25;;;;;;;8.97;8.13;;;;;;;1.40;nan;96810.03;5065930;27;20303;-67
2022/03/18 05:11:53;;;;;;;8.30;7.03;;;;;;;1.31;nan;96811.44;5064222;27;20286;-67
2022/03/18 05:14:19;;;;;;;8.77;7.90;;;;;;;1.07;nan;96820.72;5066003;27;20282;-68
2022/03/18 05:16:46;;;;;;;11.83;8.53;;;;;;;1.00;nan;96817.16;5049846;27;20217;-67
2022/03/18 05:19:13;;;;;;;13.33;8.60;;;;;;;1.08;nan;96817.41;5060761;27;20583;-68
2022/03/18 05:21:41;;;;;;;9.30;8.27;;;;;;;1.13;nan;96828.44;5062649;27;20203;-68
2022/03/18 05:24:07;;;;;;;8.83;7.93;;;;;;;1.06;nan;96829.03;5067897;27;20202;-68
2022/03/18 05:26:35;;;;;;;9.27;8.23;;;;;;;1.09;nan;96828.28;5064483;27;20274;-67
2022/03/18 05:29:03;;;;;;;10.13;9.10;;;;;;;1.41;nan;96822.63;5066999;27;20395;-68
2022/03/18 05:31:31;;;;;;;12.33;10.17;;;;;;;1.45;nan;96818.53;5058038;27;20318;-69
2022/03/18 05:33:58;;;;;;;9.63;8.70;;;;;;;1.70;nan;96836.00;5062848;27;20195;-68
2022/03/18 05:36:25;;;;;;;12.20;9.20;;;;;;;1.38;nan;96841.72;5053464;27;20218;-69
2022/03/18 05:38:52;;;;;;;10.20;9.20;;;;;;;1.24;nan;96827.09;5059256;27;20672;-69
2022/03/18 05:41:18;;;;;;;11.17;8.97;;;;;;;1.59;nan;96827.31;5064705;27;20729;-68
2022/03/18 05:43:45;;;;;;;10.43;9.33;;;;;;;1.69;nan;96820.09;5058141;27;20199;-69
2022/03/18 05:46:14;;;;;;;9.73;8.83;;;;;;;1.66;nan;96832.53;5053793;27;20209;-68
2022/03/18 05:48:41;;;;;;;9.63;8.73;;;;;;;1.71;nan;96842.72;5056360;27;20218;-68
2022/03/18 05:51:08;;;;;;;17.47;10.33;;;;;;;1.75;nan;96848.63;5060128;27;20206;-67
2022/03/18 05:53:35;;;;;;;11.33;9.50;;;;;;;2.07;nan;96842.03;5058196;27;20221;-68
2022/03/18 05:58:46;;;;;;;13.40;9.07;;;;;;;3.28;nan;96835.06;5056485;27;20266;-69
2022/03/18 06:01:14;;;;;;;10.97;9.10;;;;;;;3.26;nan;96841.72;5061468;27;20293;-66
2022/03/18 06:03:41;;;;;;;9.13;8.23;;;;;;;3.14;nan;96846.47;5047767;27;20683;-67
2022/03/18 06:06:08;;;;;;;12.77;8.07;;;;;;;2.76;nan;96842.19;5065041;27;20191;-67
2022/03/18 06:14:04;;;;;;;12.37;9.80;;;;;;;2.85;nan;96858.34;5068770;27;20209;-68
2022/03/18 06:16:33;;;;;;;18.80;10.77;;;;;;;3.02;nan;96868.78;5067778;27;20325;-68
2022/03/18 06:18:59;;;;;;;11.37;8.27;;;;;;;4.58;nan;96871.31;5077782;27;20222;-68
2022/03/18 06:21:26;;;;;;;17.33;8.37;;;;;;;4.78;nan;96875.03;5060203;27;20259;-68
2022/03/18 06:23:53;;;;;;;16.00;8.70;;;;;;;4.76;nan;96876.69;5060957;27;20202;-68
2022/03/18 06:26:20;;;;;;;9.93;7.93;;;;;;;3.79;nan;96874.75;5064830;27;20233;-68
2022/03/18 06:28:46;;;;;;;10.43;8.27;;;;;;;3.31;nan;96880.38;5060839;27;20238;-68
2022/03/18 06:31:14;;;;;;;10.97;8.07;;;;;;;3.14;nan;96885.81;5064435;27;20203;-68
2022/03/18 06:33:44;;;;;;;18.80;8.27;;;;;;;2.82;nan;96897.56;5060540;27;20210;-68
2022/03/18 06:36:11;;;;;;;11.47;7.10;;;;;;;2.30;nan;96902.06;5072500;27;20203;-68
2022/03/18 06:38:38;;;;;;;7.13;6.53;;;;;;;2.08;nan;96898.91;5070586;27;20243;-67
2022/03/18 06:41:05;;;;;;;15.77;7.40;;;;;;;2.11;nan;96909.88;5057081;27;20208;-68
2022/03/18 06:43:32;;;;;;;10.40;6.87;;;;;;;2.38;nan;96905.63;5057929;27;20210;-69
2022/03/18 06:45:59;;;;;;;9.40;6.60;;;;;;;2.42;nan;96913.25;5064734;27;20752;-68
2022/03/18 06:48:26;;;;;;;13.03;7.23;;;;;;;2.15;nan;96920.84;5056158;27;20263;-68
2022/03/18 06:50:54;;;;;;;7.77;6.60;;;;;;;2.30;nan;96912.09;5065963;27;20230;-68
2022/03/18 06:53:21;;;;;;;10.43;7.13;;;;;;;2.73;nan;96931.66;5063068;27;20263;-68
2022/03/18 06:55:48;;;;;;;13.90;4.57;;;;;;;3.56;nan;96931.22;5056407;27;20278;-67
2022/03/18 06:58:15;;;;;;;10.93;4.47;;;;;;;4.34;nan;96917.03;5057419;27;20222;-67
2022/03/18 07:00:42;;;;;;;3.80;3.33;;;;;;;5.10;nan;96928.53;5066706;27;22653;-67
2022/03/18 07:03:09;;;;;;;4.20;3.90;;;;;;;5.10;nan;96918.44;5052962;27;20612;-68
2022/03/18 07:05:37;;;;;;;6.13;5.07;;;;;;;6.96;nan;96921.00;5059588;27;20199;-68
2022/03/18 07:08:05;;;;;;;6.37;4.17;;;;;;;6.99;nan;96942.94;5070733;27;20207;-67
2022/03/18 07:10:32;;;;;;;5.03;4.55;;;;;;;6.99;nan;96935.38;5065484;27;20230;-68
2022/03/18 07:12:59;;;;;;;7.75;5.25;;;;;;;6.62;nan;96929.94;5060809;27;20286;-67
2022/03/18 07:15:26;;;;;;;5.80;4.03;;;;;;;7.87;nan;96931.09;5064527;27;20206;-68
2022/03/18 07:17:55;;;;;;;4.78;4.38;;;;;;;9.00;nan;96931.63;5064140;27;21597;-68
2022/03/18 07:20:23;;;;;;;6.82;5.03;;;;;;;6.81;nan;96951.19;5075920;27;20247;-69
2022/03/18 07:23:01;;;;;;;5.50;5.00;;;;;;;6.35;nan;96939.69;5061562;27;20282;-70
2022/03/18 07:25:29;;;;;;;8.13;5.45;;;;;;;8.09;nan;96927.84;5068167;27;20210;-70
2022/03/18 07:27:57;;;;;;;4.95;4.55;;;;;;;8.73;nan;96924.78;5065270;27;20206;-68
2022/03/18 07:30:24;;;;;;;7.72;5.63;;;;;;;7.42;nan;96942.53;5056614;27;20230;-68
2022/03/18 07:32:51;;;;;;;11.23;6.03;;;;;;;8.39;nan;96941.56;5063215;27;20230;-68
2022/03/18 07:35:19;;;;;;;4.38;3.88;;;;;;;8.45;nan;96928.88;5076939;27;20202;-68
2022/03/18 07:37:47;;;;;;;5.07;4.70;;;;;;;7.35;nan;96943.31;5068622;27;20203;-70
2022/03/18 07:40:14;;;;;;;4.93;4.45;;;;;;;7.25;nan;96949.13;5061798;27;20203;-68
2022/03/18 07:42:44;;;;;;;4.60;4.22;;;;;;;7.22;nan;96954.13;5068775;27;21094;-67
2022/03/18 07:45:12;;;;;;;4.50;4.07;;;;;;;7.06;nan;96962.41;5064299;27;21172;-68
2022/03/18 07:47:39;;;;;;;5.78;5.28;;;;;;;7.07;nan;96959.06;5059049;27;20211;-68
2022/03/18 07:50:07;;;;;;;6.30;5.07;;;;;;;8.85;nan;96948.50;5073214;27;20625;-68
2022/03/18 07:52:33;;;;;;;4.63;4.20;;;;;;;8.62;nan;96959.41;5064962;27;21180;-68
2022/03/18 07:55:01;;;;;;;4.78;4.38;;;;;;;7.83;nan;96958.06;5065233;27;20275;-68
2022/03/18 07:57:28;;;;;;;5.50;4.07;;;;;;;7.51;nan;96965.38;5067058;27;20206;-69
2022/03/18 07:59:56;;;;;;;5.50;5.00;;;;;;;7.55;nan;96963.72;5057375;27;21009;-68
2022/03/18 08:02:23;;;;;;;6.93;5.07;;;;;;;7.88;nan;96955.56;5062068;27;20669;-68
2022/03/18 08:04:52;;;;;;;4.53;4.13;;;;;;;7.76;nan;96963.06;5067759;27;20203;-68
2022/03/18 08:07:20;;;;;;;5.07;4.57;;;;;;;8.17;nan;96956.56;5063986;27;20325;-68
2022/03/18 08:09:47;;;;;;;5.75;5.25;;;;;;;9.02;nan;96960.38;5076562;27;20223;-69
2022/03/18 08:12:15;;;;;;;5.10;4.70;;;;;;;10.11;nan;96951.97;5073335;27;20229;-69
2022/03/18 08:14:43;;;;;;;5.47;4.75;;;;;;;10.16;nan;96960.41;5080588;27;20203;-69
2022/03/18 08:17:11;;;;;;;5.47;4.97;;;;;;;8.79;nan;96956.06;5075178;27;20202;-69
2022/03/18 08:19:38;;;;;;;6.13;4.80;;;;;;;8.22;nan;96954.06;5079799;27;20195;-69
2022/03/18 08:22:07;;;;;;;6.90;6.30;;;;;;;6.26;nan;96959.75;5068807;27;20199;-69
2022/03/18 08:24:33;;;;;;;5.30;4.53;;;;;;;6.10;nan;96949.47;5065694;27;20198;-68
2022/03/18 08:27:00;;;;;;;5.53;4.78;;;;;;;6.81;nan;96976.47;5061721;27;20274;-67
2022/03/18 08:29:28;;;;;;;4.23;3.93;;;;;;;5.78;nan;96981.75;5059266;27;20250;-68
2022/03/18 08:31:55;;;;;;;4.75;4.45;;;;;;;5.77;nan;96953.97;5045664;27;20234;-69
2022/03/18 08:34:23;;;;;;;7.10;4.43;;;;;;;5.95;nan;96964.38;5060770;27;20283;-68
2022/03/18 08:36:50;;;;;;;4.50;3.80;;;;;;;6.60;nan;96956.84;5064952;27;20199;-69
2022/03/18 08:39:17;;;;;;;6.20;5.03;;;;;;;6.48;nan;96961.75;5062514;27;20233;-68
2022/03/18 08:41:45;;;;;;;5.55;5.15;;;;;;;6.56;nan;96952.59;5054768;27;20199;-68
2022/03/18 08:44:14;;;;;;;7.65;4.65;;;;;;;6.56;nan;96960.16;5062389;27;20259;-69
2022/03/18 08:46:40;;;;;;;6.33;4.53;;;;;;;6.62;nan;96954.34;5056399;27;20225;-70
2022/03/18 08:49:07;;;;;;;4.97;3.78;;;;;;;6.41;nan;96949.88;5098999;27;20206;-67
2022/03/18 08:51:35;;;;;;;4.10;3.83;;;;;;;6.20;nan;96952.09;5055811;27;20861;-67
2022/03/18 08:54:02;;;;;;;5.28;4.78;;;;;;;6.44;nan;96952.41;5063039;27;20230;-68
2022/03/18 08:56:29;;;;;;;4.97;4.27;;;;;;;5.62;nan;96946.19;5061761;27;20202;-68
2022/03/18 08:58:56;;;;;;;6.55;4.95;;;;;;;5.16;nan;96952.16;5065426;27;20307;-69
2022/03/18 09:01:24;;;;;;;6.53;4.53;;;;;;;4.93;nan;96949.22;5071204;27;20207;-68
2022/03/18 09:03:51;;;;;;;4.40;4.00;;;;;;;5.12;nan;96953.75;5065385;27;20209;-69
2022/03/18 09:06:18;;;;;;;4.83;4.27;;;;;;;5.70;nan;96947.13;5066979;27;20286;-69
2022/03/18 09:08:46;;;;;;;9.60;5.37;;;;;;;5.64;nan;96947.06;5070154;27;20249;-70
2022/03/18 09:11:13;;;;;;;6.63;4.93;;;;;;;5.89;nan;96939.06;5058160;27;20222;-70
2022/03/18 09:13:40;;;;;;;6.53;4.90;;;;;;;6.64;nan;96942.59;5048276;27;20203;-69
2022/03/18 09:16:07;;;;;;;4.38;4.07;;;;;;;6.31;nan;96955.63;5057073;27;20195;-69
2022/03/18 09:18:34;;;;;;;4.90;4.43;;;;;;;5.59;nan;96956.22;5063910;27;20210;-69
2022/03/18 09:21:01;;;;;;;5.63;4.97;;;;;;;5.59;nan;96951.19;5067557;27;20210;-68
2022/03/18 09:23:28;;;;;;;6.53;4.80;;;;;;;5.51;nan;96960.28;5061902;27;20202;-67
2022/03/18 09:25:56;;;;;;;7.17;4.37;;;;;;;5.80;nan;96946.47;5055454;27;20210;-70
2022/03/18 09:28:24;;;;;;;4.60;4.30;;;;;;;6.06;nan;96941.81;5054047;27;20248;-67
2022/03/18 09:30:51;;;;;;;7.77;4.90;;;;;;;6.16;nan;96945.34;5051571;27;20230;-69
2022/03/18 09:33:18;;;;;;;15.93;5.37;;;;;;;5.86;nan;96958.31;5144121;27;20253;-67
2022/03/18 09:35:45;;;;;;;8.10;4.97;;;;;;;5.06;nan;96961.19;5143357;27;20788;-69
2022/03/18 09:38:12;;;;;;;9.02;5.50;;;;;;;5.10;nan;96952.88;5145882;27;20272;-67
2022/03/18 09:40:40;;;;;;;5.63;5.10;;;;;;;5.22;nan;96950.56;5145363;27;20230;-67
2022/03/18 09:43:10;;;;;;;6.70;5.00;;;;;;;5.22;nan;96953.06;5145564;27;20203;-68
2022/03/18 09:45:38;;;;;;;6.15;5.65;;;;;;;5.34;nan;96950.78;5143741;27;21550;-69
2022/03/18 09:48:07;;;;;;;5.13;4.67;;;;;;;4.76;nan;96947.22;5142522;27;20204;-68
2022/03/18 09:50:35;;;;;;;6.23;5.73;;;;;;;5.10;nan;96947.84;5143115;27;20559;-68
2022/03/18 09:53:02;;;;;;;5.57;5.18;;;;;;;5.17;nan;96954.69;5144353;27;20204;-69
2022/03/18 09:55:31;;;;;;;7.20;5.67;;;;;;;5.13;nan;96942.84;5143225;27;20203;-69
2022/03/18 09:57:58;;;;;;;6.00;5.30;;;;;;;5.12;nan;96947.03;5143389;27;20203;-68
2022/03/18 10:00:26;;;;;;;8.03;5.73;;;;;;;5.16;nan;96953.00;5141167;27;20242;-69
2022/03/18 10:03:08;;;;;;;6.65;6.13;;;;;;;5.38;nan;96954.22;5141530;27;20199;-69
2022/03/18 10:05:37;;;;;;;6.60;5.87;;;;;;;5.62;nan;96949.56;5143600;27;20333;-69
2022/03/18 10:08:04;;;;;;;7.13;5.43;;;;;;;5.02;nan;96914.94;5143716;27;20884;-69
2022/03/18 10:10:44;;;;;;;11.82;5.78;;;;;;;5.05;nan;96949.41;5142700;27;20332;-69
2022/03/18 10:13:11;;;;;;;16.00;5.47;;;;;;;5.03;nan;96951.91;5140768;27;20202;-69
2022/03/18 10:15:40;;;;;;;6.07;5.47;;;;;;;5.74;nan;96949.75;5143164;27;20211;-69
2022/03/18 10:18:11;;;;;;;6.70;5.40;;;;;;;5.42;nan;96950.91;5144200;27;20259;-70
2022/03/18 10:20:39;;;;;;;7.47;5.55;;;;;;;4.81;nan;96942.25;5141850;27;20280;-70
2022/03/18 10:23:22;;;;;;;5.83;4.43;;;;;;;4.95;nan;96942.53;5143350;27;20195;-71
2022/03/18 10:25:53;;;;;;;5.70;5.23;;;;;;;5.13;nan;96950.41;5143863;27;20626;-70
2022/03/18 10:28:36;;;;;;;6.27;5.47;;;;;;;5.40;nan;96942.47;5144851;27;20248;-68
2022/03/18 10:31:20;;;;;;;7.03;5.85;;;;;;;5.50;nan;96949.34;5144749;27;20218;-69
2022/03/18 10:39:23;;;;;;;5.28;4.85;;;;;;;6.32;nan;96945.56;5142548;27;22218;-70
2022/03/18 10:41:50;;;;;;;7.73;5.37;;;;;;;6.00;nan;96936.69;5142847;27;20205;-70
2022/03/18 10:44:17;;;;;;;6.07;5.53;;;;;;;6.23;nan;96944.56;5143018;27;20290;-70
2022/03/18 10:46:47;;;;;;;8.37;5.90;;;;;;;6.66;nan;96939.25;5143811;27;20282;-69
2022/03/18 10:49:14;;;;;;;5.87;5.30;;;;;;;7.10;nan;96933.81;5142939;27;20290;-70
2022/03/18 10:51:41;;;;;;;5.57;4.60;;;;;;;6.76;nan;96927.53;5143551;27;20799;-70
2022/03/18 10:54:08;;;;;;;7.47;4.67;;;;;;;6.85;nan;96939.44;5143098;27;20214;-69
2022/03/18 10:56:53;;;;;;;5.93;5.43;;;;;;;6.91;nan;96937.00;5143280;27;20329;-69
2022/03/18 10:59:21;;;;;;;5.18;4.78;;;;;;;7.03;nan;96937.09;5144995;27;20618;-70
2022/03/18 11:01:49;;;;;;;5.55;4.93;;;;;;;6.63;nan;96936.69;5147337;27;20195;-70
2022/03/18 11:04:16;;;;;;;6.30;4.97;;;;;;;6.34;nan;96930.41;5147328;27;20281;-68
2022/03/18 11:07:29;;;;;;;10.93;5.05;;;;;;;6.09;nan;96932.63;5153637;27;20250;-70
2022/03/18 11:11:06;;;;;;;5.10;4.57;;;;;;;6.01;nan;96928.28;5153331;27;20191;-70
2022/03/18 11:12:23;;;;;;;4.50;4.10;;;;;;;5.83;nan;96933.91;5155508;27;20258;-70
2022/03/18 11:14:53;;;;;;;6.27;5.00;;;;;;;5.90;nan;96925.63;5155890;27;20206;-69
2022/03/18 11:17:23;;;;;;;4.35;4.05;;;;;;;6.28;nan;96923.59;5156031;27;20198;-71
2022/03/18 11:19:51;;;;;;;5.83;4.97;;;;;;;6.74;nan;96916.56;5154743;27;20205;-67
2022/03/18 11:22:18;;;;;;;10.20;6.00;;;;;;;7.67;nan;96909.84;5153851;27;20207;-67
2022/03/18 11:24:47;;;;;;;5.13;4.70;;;;;;;6.73;nan;96927.50;5155686;27;20192;-69
2022/03/18 11:27:16;;;;;;;5.40;4.47;;;;;;;6.89;nan;96918.44;5154874;27;20191;-69
2022/03/18 11:29:43;;;;;;;7.75;5.63;;;;;;;7.03;nan;96915.19;5155717;27;20203;-69
2022/03/18 11:32:24;;;;;;;5.63;4.50;;;;;;;6.54;nan;96910.44;5155650;27;20231;-69
2022/03/18 11:34:56;;;;;;;5.65;3.97;;;;;;;5.70;nan;96922.75;5155240;27;20658;-68
2022/03/18 11:37:25;;;;;;;6.15;5.57;;;;;;;5.72;nan;96921.09;5155610;27;20685;-71
2022/03/18 11:39:52;;;;;;;8.00;4.90;;;;;;;5.72;nan;96920.25;5155448;27;20194;-69
2022/03/18 11:42:20;;;;;;;5.17;4.73;;;;;;;6.14;nan;96918.41;5154597;27;20397;-68
2022/03/18 11:44:58;;;;;;;5.90;4.00;;;;;;;6.52;nan;96918.00;5153824;27;20570;-70
2022/03/18 11:47:40;;;;;;;7.00;4.27;;;;;;;7.25;nan;96907.81;5155291;27;20238;-69
2022/03/18 11:50:37;;;;;;;4.15;3.85;;;;;;;7.06;nan;96896.69;5154554;27;20202;-69
2022/03/18 11:53:04;;;;;;;5.50;4.05;;;;;;;6.31;nan;96908.50;5154622;27;20227;-69
2022/03/18 11:55:31;;;;;;;8.70;4.40;;;;;;;6.11;nan;96910.78;5154711;27;20662;-69
2022/03/18 11:57:58;;;;;;;4.37;3.70;;;;;;;6.44;nan;96896.84;5154248;27;20290;-68
2022/03/18 12:00:43;;;;;;;3.67;3.38;;;;;;;6.51;nan;96901.16;5154855;27;20215;-69
2022/03/18 12:03:20;;;;;;;6.93;4.68;;;;;;;6.30;nan;96896.72;5154840;27;20227;-71
2022/03/18 12:05:54;;;;;;;7.32;4.45;;;;;;;6.31;nan;96902.59;5154248;27;20195;-69
2022/03/18 12:09:00;;;;;;;4.78;4.28;;;;;;;6.63;nan;96901.31;5154529;27;20274;-68
2022/03/18 12:11:29;;;;;;;3.80;3.50;;;;;;;6.12;nan;96904.91;5138120;27;20246;-69
2022/03/18 12:13:56;;;;;;;7.65;3.50;;;;;;;5.45;nan;96898.00;5154335;27;20199;-68
2022/03/18 12:16:24;;;;;;;6.22;4.40;;;;;;;5.74;nan;96908.53;5154220;27;20195;-69
2022/03/18 12:19:09;;;;;;;4.20;3.80;;;;;;;5.69;nan;96902.59;5154466;27;20223;-68
2022/03/18 12:21:38;;;;;;;5.93;3.70;;;;;;;5.59;nan;96903.25;5154620;27;20188;-69
2022/03/18 12:24:09;;;;;;;6.73;4.57;;;;;;;5.90;nan;96892.81;5154694;27;20195;-69
2022/03/18 12:26:38;;;;;;;4.20;3.88;;;;;;;6.16;nan;96900.75;5154005;27;20220;-68
2022/03/18 12:29:06;;;;;;;3.90;3.57;;;;;;;5.83;nan;96896.06;5154040;27;20230;-68